sensor_id;sensor_type;location;lat;lon;timestamp;pressure;altitude;pressure_sealevel;temperature;humidity
78671;BME280;68277;52.724;6.516;2023-10-13T00:01:34;101058.03;;;15.44;100.00
78671;BME280;68277;52.724;6.516;2023-10-13T00:04:00;101042.38;;;15.35;100.00
78671;BME280;68277;52.724;6.516;2023-10-13T00:06:30;101063.44;;;15.42;100.00
78671;BME280;68277;52.724;6.516;2023-10-13T00:08:56;101051.81;;;15.43;100.00
78671;BME280;68277;52.724;6.516;2023-10-13T00:11:23;101064.81;;;15.52;100.00
78671;BME280;68277;52.724;6.516;2023-10-13T00:13:52;101049.94;;;15.47;100.00
78671;BME280;68277;52.724;6.516;2023-10-13T00:16:19;101059.44;;;15.54;100.00
78671;BME280;68277;52.724;6.516;2023-10-13T00:18:52;101039.19;;;15.48;100.00
78671;BME280;68277;52.724;6.516;2023-10-13T00:21:23;101020.06;;;15.37;100.00
78671;BME280;68277;52.724;6.516;2023-10-13T00:23:59;101045.31;;;15.52;100.00
78671;BME280;68277;52.724;6.516;2023-10-13T00:26:28;101026.09;;;15.42;100.00
78671;BME280;68277;52.724;6.516;2023-10-13T00:28:58;101040.94;;;15.49;100.00
78671;BME280;68277;52.724;6.516;2023-10-13T00:31:26;101054.91;;;15.56;100.00
78671;BME280;68277;52.724;6.516;2023-10-13T00:34:02;101034.91;;;15.44;100.00
78671;BME280;68277;52.724;6.516;2023-10-13T00:36:38;101048.69;;;15.55;100.00
78671;BME280;68277;52.724;6.516;2023-10-13T00:39:14;101019.00;;;15.41;100.00
78671;BME280;68277;52.724;6.516;2023-10-13T00:41:45;101031.19;;;15.48;100.00
78671;BME280;68277;52.724;6.516;2023-10-13T00:44:20;101021.50;;;15.46;100.00
78671;BME280;68277;52.724;6.516;2023-10-13T00:47:03;101014.47;;;15.45;100.00
78671;BME280;68277;52.724;6.516;2023-10-13T00:49:31;101020.44;;;15.50;100.00
78671;BME280;68277;52.724;6.516;2023-10-13T00:52:19;101035.13;;;15.61;100.00
78671;BME280;68277;52.724;6.516;2023-10-13T00:54:45;101013.31;;;15.50;100.00
78671;BME280;68277;52.724;6.516;2023-10-13T00:57:15;101041.13;;;15.66;100.00
78671;BME280;68277;52.724;6.516;2023-10-13T00:59:56;101016.69;;;15.55;100.00
78671;BME280;68277;52.724;6.516;2023-10-13T01:02:23;101006.13;;;15.52;100.00
78671;BME280;68277;52.724;6.516;2023-10-13T01:05:07;100998.00;;;15.55;100.00
78671;BME280;68277;52.724;6.516;2023-10-13T01:07:35;100991.13;;;15.50;100.00
78671;BME280;68277;52.724;6.516;2023-10-13T01:10:10;100997.09;;;15.56;100.00
78671;BME280;68277;52.724;6.516;2023-10-13T01:12:40;100977.13;;;15.45;100.00
78671;BME280;68277;52.724;6.516;2023-10-13T01:15:11;100980.31;;;15.53;100.00
78671;BME280;68277;52.724;6.516;2023-10-13T01:17:38;101011.75;;;15.68;100.00
78671;BME280;68277;52.724;6.516;2023-10-13T01:20:04;100992.75;;;15.54;100.00
78671;BME280;68277;52.724;6.516;2023-10-13T01:22:31;101002.84;;;15.67;100.00
78671;BME280;68277;52.724;6.516;2023-10-13T01:25:00;100994.16;;;15.62;100.00
78671;BME280;68277;52.724;6.516;2023-10-13T01:27:43;101004.53;;;15.70;100.00
78671;BME280;68277;52.724;6.516;2023-10-13T01:30:13;100969.78;;;15.50;100.00
78671;BME280;68277;52.724;6.516;2023-10-13T01:32:39;100989.78;;;15.61;100.00
78671;BME280;68277;52.724;6.516;2023-10-13T01:35:10;100992.19;;;15.67;100.00
78671;BME280;68277;52.724;6.516;2023-10-13T01:37:35;100991.19;;;15.70;100.00
78671;BME280;68277;52.724;6.516;2023-10-13T01:40:01;100992.09;;;15.69;100.00
78671;BME280;68277;52.724;6.516;2023-10-13T01:42:27;100965.28;;;15.52;100.00
78671;BME280;68277;52.724;6.516;2023-10-13T01:44:55;100977.25;;;15.63;100.00
78671;BME280;68277;52.724;6.516;2023-10-13T01:47:24;100962.53;;;15.53;100.00
78671;BME280;68277;52.724;6.516;2023-10-13T01:49:49;100956.13;;;15.57;100.00
78671;BME280;68277;52.724;6.516;2023-10-13T01:52:15;100954.53;;;15.53;100.00
78671;BME280;68277;52.724;6.516;2023-10-13T01:54:45;100972.59;;;15.68;100.00
78671;BME280;68277;52.724;6.516;2023-10-13T01:57:14;100960.25;;;15.66;100.00
78671;BME280;68277;52.724;6.516;2023-10-13T02:00:02;100961.84;;;15.70;100.00
78671;BME280;68277;52.724;6.516;2023-10-13T02:02:40;100944.03;;;15.70;100.00
78671;BME280;68277;52.724;6.516;2023-10-13T02:05:10;100918.97;;;15.53;100.00
78671;BME280;68277;52.724;6.516;2023-10-13T02:07:37;100919.78;;;15.55;100.00
78671;BME280;68277;52.724;6.516;2023-10-13T02:10:04;100941.41;;;15.69;100.00
78671;BME280;68277;52.724;6.516;2023-10-13T02:12:31;100924.78;;;15.62;100.00
78671;BME280;68277;52.724;6.516;2023-10-13T02:15:23;100906.59;;;15.52;100.00
78671;BME280;68277;52.724;6.516;2023-10-13T02:17:52;100935.16;;;15.70;100.00
78671;BME280;68277;52.724;6.516;2023-10-13T02:20:20;100934.22;;;15.71;100.00
78671;BME280;68277;52.724;6.516;2023-10-13T02:22:50;100910.72;;;15.59;100.00
78671;BME280;68277;52.724;6.516;2023-10-13T02:25:16;100929.03;;;15.68;100.00
78671;BME280;68277;52.724;6.516;2023-10-13T02:28:02;100892.31;;;15.53;100.00
78671;BME280;68277;52.724;6.516;2023-10-13T02:30:28;100881.72;;;15.51;100.00
78671;BME280;68277;52.724;6.516;2023-10-13T02:32:54;100904.06;;;15.69;100.00
78671;BME280;68277;52.724;6.516;2023-10-13T02:35:21;100885.91;;;15.57;100.00
78671;BME280;68277;52.724;6.516;2023-10-13T02:37:56;100871.16;;;15.48;100.00
78671;BME280;68277;52.724;6.516;2023-10-13T02:40:24;100877.97;;;15.55;100.00
78671;BME280;68277;52.724;6.516;2023-10-13T02:42:52;100871.84;;;15.53;100.00
78671;BME280;68277;52.724;6.516;2023-10-13T02:45:17;100861.38;;;15.49;100.00
78671;BME280;68277;52.724;6.516;2023-10-13T02:47:47;100895.13;;;15.70;100.00
78671;BME280;68277;52.724;6.516;2023-10-13T02:50:32;100865.59;;;15.54;100.00
78671;BME280;68277;52.724;6.516;2023-10-13T02:52:59;100884.53;;;15.68;100.00
78671;BME280;68277;52.724;6.516;2023-10-13T02:55:24;100875.22;;;15.57;100.00
78671;BME280;68277;52.724;6.516;2023-10-13T02:57:51;100858.41;;;15.55;100.00
78671;BME280;68277;52.724;6.516;2023-10-13T03:00:20;100849.56;;;15.54;100.00
78671;BME280;68277;52.724;6.516;2023-10-13T03:02:48;100854.75;;;15.57;100.00
78671;BME280;68277;52.724;6.516;2023-10-13T03:05:23;100851.38;;;15.54;100.00
78671;BME280;68277;52.724;6.516;2023-10-13T03:07:49;100877.25;;;15.72;100.00
78671;BME280;68277;52.724;6.516;2023-10-13T03:10:16;100850.41;;;15.55;100.00
78671;BME280;68277;52.724;6.516;2023-10-13T03:12:44;100838.06;;;15.52;100.00
78671;BME280;68277;52.724;6.516;2023-10-13T03:15:14;100859.69;;;15.66;100.00
78671;BME280;68277;52.724;6.516;2023-10-13T03:17:46;100858.09;;;15.62;100.00
78671;BME280;68277;52.724;6.516;2023-10-13T03:20:21;100830.03;;;15.54;100.00
78671;BME280;68277;52.724;6.516;2023-10-13T03:22:57;100855.03;;;15.71;100.00
78671;BME280;68277;52.724;6.516;2023-10-13T03:25:23;100830.72;;;15.59;100.00
78671;BME280;68277;52.724;6.516;2023-10-13T03:27:55;100830.72;;;15.59;100.00
78671;BME280;68277;52.724;6.516;2023-10-13T03:30:21;100837.72;;;15.61;100.00
78671;BME280;68277;52.724;6.516;2023-10-13T03:32:49;100824.41;;;15.60;100.00
78671;BME280;68277;52.724;6.516;2023-10-13T03:35:19;100801.72;;;15.50;100.00
78671;BME280;68277;52.724;6.516;2023-10-13T03:37:56;100827.56;;;15.69;100.00
78671;BME280;68277;52.724;6.516;2023-10-13T03:40:22;100826.63;;;15.70;100.00
78671;BME280;68277;52.724;6.516;2023-10-13T03:42:55;100820.34;;;15.71;100.00
78671;BME280;68277;52.724;6.516;2023-10-13T03:45:41;100811.47;;;15.71;100.00
78671;BME280;68277;52.724;6.516;2023-10-13T03:48:09;100806.13;;;15.71;100.00
78671;BME280;68277;52.724;6.516;2023-10-13T03:50:40;100793.81;;;15.68;100.00
78671;BME280;68277;52.724;6.516;2023-10-13T03:53:13;100787.53;;;15.69;100.00
78671;BME280;68277;52.724;6.516;2023-10-13T03:55:39;100770.06;;;15.62;100.00
78671;BME280;68277;52.724;6.516;2023-10-13T03:58:05;100737.91;;;15.45;100.00
78671;BME280;68277;52.724;6.516;2023-10-13T04:00:32;100754.25;;;15.58;100.00
78671;BME280;68277;52.724;6.516;2023-10-13T04:02:58;100754.25;;;15.58;100.00
78671;BME280;68277;52.724;6.516;2023-10-13T04:05:35;100764.31;;;15.71;100.00
78671;BME280;68277;52.724;6.516;2023-10-13T04:08:20;100735.59;;;15.58;100.00
78671;BME280;68277;52.724;6.516;2023-10-13T04:10:53;100729.66;;;15.51;100.00
78671;BME280;68277;52.724;6.516;2023-10-13T04:13:19;100745.06;;;15.65;100.00
78671;BME280;68277;52.724;6.516;2023-10-13T04:16:03;100734.16;;;15.69;100.00
78671;BME280;68277;52.724;6.516;2023-10-13T04:18:48;100729.84;;;15.67;100.00
78671;BME280;68277;52.724;6.516;2023-10-13T04:21:23;100730.78;;;15.66;100.00
78671;BME280;68277;52.724;6.516;2023-10-13T04:24:10;100678.41;;;15.43;100.00
78671;BME280;68277;52.724;6.516;2023-10-13T04:26:43;100688.00;;;15.49;100.00
78671;BME280;68277;52.724;6.516;2023-10-13T04:29:27;100700.63;;;15.64;100.00
78671;BME280;68277;52.724;6.516;2023-10-13T04:32:31;100677.13;;;15.53;100.00
78671;BME280;68277;52.724;6.516;2023-10-13T04:35:04;100683.91;;;15.60;100.00
78671;BME280;68277;52.724;6.516;2023-10-13T04:37:44;100668.44;;;15.48;100.00
78671;BME280;68277;52.724;6.516;2023-10-13T04:40:18;100674.09;;;15.61;100.00
78671;BME280;68277;52.724;6.516;2023-10-13T04:42:49;100650.56;;;15.50;100.00
78671;BME280;68277;52.724;6.516;2023-10-13T04:45:18;100636.69;;;15.42;100.00
78671;BME280;68277;52.724;6.516;2023-10-13T04:48:04;100660.81;;;15.59;100.00
78671;BME280;68277;52.724;6.516;2023-10-13T04:50:59;100650.22;;;15.58;100.00
78671;BME280;68277;52.724;6.516;2023-10-13T04:53:44;100653.69;;;15.60;100.00
78671;BME280;68277;52.724;6.516;2023-10-13T04:56:25;100620.53;;;15.47;100.00
78671;BME280;68277;52.724;6.516;2023-10-13T04:59:14;100602.94;;;15.41;100.00
78671;BME280;68277;52.724;6.516;2023-10-13T05:01:58;100605.38;;;15.47;100.00
78671;BME280;68277;52.724;6.516;2023-10-13T05:04:46;100626.13;;;15.59;100.00
78671;BME280;68277;52.724;6.516;2023-10-13T05:07:30;100616.34;;;15.60;100.00
78671;BME280;68277;52.724;6.516;2023-10-13T05:10:14;100598.88;;;15.53;100.00
78671;BME280;68277;52.724;6.516;2023-10-13T05:12:58;100584.97;;;15.46;100.00
78671;BME280;68277;52.724;6.516;2023-10-13T05:15:44;100584.53;;;15.55;100.00
78671;BME280;68277;52.724;6.516;2023-10-13T05:18:28;100568.06;;;15.47;100.00
78671;BME280;68277;52.724;6.516;2023-10-13T05:21:12;100549.53;;;15.44;100.00
78671;BME280;68277;52.724;6.516;2023-10-13T05:23:56;100568.66;;;15.52;100.00
78671;BME280;68277;52.724;6.516;2023-10-13T05:26:40;100521.59;;;15.33;100.00
78671;BME280;68277;52.724;6.516;2023-10-13T05:29:24;100528.59;;;15.35;100.00
78671;BME280;68277;52.724;6.516;2023-10-13T05:32:08;100533.38;;;15.47;100.00
78671;BME280;68277;52.724;6.516;2023-10-13T05:34:51;100548.06;;;15.56;100.00
78671;BME280;68277;52.724;6.516;2023-10-13T05:37:35;100554.28;;;15.56;100.00
78671;BME280;68277;52.724;6.516;2023-10-13T05:40:19;100533.38;;;15.47;100.00
78671;BME280;68277;52.724;6.516;2023-10-13T05:43:04;100540.22;;;15.53;100.00
78671;BME280;68277;52.724;6.516;2023-10-13T05:45:48;100505.94;;;15.44;100.00
78671;BME280;68277;52.724;6.516;2023-10-13T05:48:31;100496.19;;;15.44;100.00
78671;BME280;68277;52.724;6.516;2023-10-13T05:51:17;100502.81;;;15.54;100.00
78671;BME280;68277;52.724;6.516;2023-10-13T05:54:09;100488.38;;;15.40;100.00
78671;BME280;68277;52.724;6.516;2023-10-13T05:56:49;100503.66;;;15.55;100.00
78671;BME280;68277;52.724;6.516;2023-10-13T05:59:35;100510.00;;;15.52;100.00
78671;BME280;68277;52.724;6.516;2023-10-13T06:02:20;100504.66;;;15.52;100.00
78671;BME280;68277;52.724;6.516;2023-10-13T06:05:05;100479.28;;;15.44;100.00
78671;BME280;68277;52.724;6.516;2023-10-13T06:07:50;100514.28;;;15.56;100.00
78671;BME280;68277;52.724;6.516;2023-10-13T06:10:35;100508.97;;;15.55;100.00
78671;BME280;68277;52.724;6.516;2023-10-13T06:13:19;100521.47;;;15.54;100.00
78671;BME280;68277;52.724;6.516;2023-10-13T06:16:07;100504.59;;;15.54;100.00
78671;BME280;68277;52.724;6.516;2023-10-13T06:18:51;100488.97;;;15.46;100.00
78671;BME280;68277;52.724;6.516;2023-10-13T06:21:35;100492.59;;;15.44;100.00
78671;BME280;68277;52.724;6.516;2023-10-13T06:24:19;100504.97;;;15.46;100.00
78671;BME280;68277;52.724;6.516;2023-10-13T06:27:03;100505.41;;;15.56;100.00
78671;BME280;68277;52.724;6.516;2023-10-13T06:29:47;100520.63;;;15.54;100.00
78671;BME280;68277;52.724;6.516;2023-10-13T06:32:14;100510.22;;;15.48;100.00
78671;BME280;68277;52.724;6.516;2023-10-13T06:34:44;100468.81;;;15.39;100.00
78671;BME280;68277;52.724;6.516;2023-10-13T06:37:16;100492.97;;;15.55;100.00
78671;BME280;68277;52.724;6.516;2023-10-13T06:39:50;100520.31;;;15.60;100.00
78671;BME280;68277;52.724;6.516;2023-10-13T06:42:16;100539.81;;;15.79;100.00
78671;BME280;68277;52.724;6.516;2023-10-13T06:44:43;100519.72;;;15.72;100.00
78671;BME280;68277;52.724;6.516;2023-10-13T06:47:12;100527.72;;;15.72;100.00
78671;BME280;68277;52.724;6.516;2023-10-13T06:49:39;100521.06;;;15.81;100.00
78671;BME280;68277;52.724;6.516;2023-10-13T06:52:09;100535.22;;;15.83;100.00
78671;BME280;68277;52.724;6.516;2023-10-13T06:54:38;100526.25;;;15.84;100.00
78671;BME280;68277;52.724;6.516;2023-10-13T06:57:07;100490.28;;;15.73;100.00
78671;BME280;68277;52.724;6.516;2023-10-13T06:59:36;100467.88;;;15.78;100.00
78671;BME280;68277;52.724;6.516;2023-10-13T07:02:06;100472.88;;;15.84;100.00
78671;BME280;68277;52.724;6.516;2023-10-13T07:04:33;100479.88;;;15.86;100.00
78671;BME280;68277;52.724;6.516;2023-10-13T07:06:59;100496.38;;;15.94;100.00
78671;BME280;68277;52.724;6.516;2023-10-13T07:09:26;100505.72;;;16.03;100.00
78671;BME280;68277;52.724;6.516;2023-10-13T07:12:15;100511.06;;;16.03;100.00
78671;BME280;68277;52.724;6.516;2023-10-13T07:14:53;100485.72;;;15.94;100.00
78671;BME280;68277;52.724;6.516;2023-10-13T07:17:29;100510.94;;;16.06;100.00
78671;BME280;68277;52.724;6.516;2023-10-13T07:19:58;100484.19;;;15.89;100.00
78671;BME280;68277;52.724;6.516;2023-10-13T07:22:53;100503.38;;;15.97;100.00
78671;BME280;68277;52.724;6.516;2023-10-13T07:25:32;100494.66;;;15.93;100.00
78671;BME280;68277;52.724;6.516;2023-10-13T07:28:01;100458.22;;;15.75;100.00
78671;BME280;68277;52.724;6.516;2023-10-13T07:30:27;100503.69;;;16.08;100.00
78671;BME280;68277;52.724;6.516;2023-10-13T07:32:53;100428.91;;;15.73;100.00
78671;BME280;68277;52.724;6.516;2023-10-13T07:35:23;100487.84;;;16.05;100.00
78671;BME280;68277;52.724;6.516;2023-10-13T07:37:50;100463.50;;;15.94;100.00
78671;BME280;68277;52.724;6.516;2023-10-13T07:40:19;100498.91;;;16.14;100.00
78671;BME280;68277;52.724;6.516;2023-10-13T07:42:51;100479.91;;;16.03;100.00
78671;BME280;68277;52.724;6.516;2023-10-13T07:45:17;100494.81;;;16.07;100.00
78671;BME280;68277;52.724;6.516;2023-10-13T07:47:53;100488.16;;;15.99;100.00
78671;BME280;68277;52.724;6.516;2023-10-13T07:50:19;100507.78;;;16.15;100.00
78671;BME280;68277;52.724;6.516;2023-10-13T07:52:51;100486.44;;;16.15;100.00
78671;BME280;68277;52.724;6.516;2023-10-13T07:55:24;100451.84;;;15.95;100.00
78671;BME280;68277;52.724;6.516;2023-10-13T07:57:50;100447.88;;;16.03;100.00
78671;BME280;68277;52.724;6.516;2023-10-13T08:00:20;100455.19;;;16.17;100.00
78671;BME280;68277;52.724;6.516;2023-10-13T08:03:03;100457.50;;;16.23;100.00
78671;BME280;68277;52.724;6.516;2023-10-13T08:05:44;100447.84;;;16.20;100.00
78671;BME280;68277;52.724;6.516;2023-10-13T08:08:28;100419.69;;;16.15;100.00
78671;BME280;68277;52.724;6.516;2023-10-13T08:11:13;100421.09;;;16.22;100.00
78671;BME280;68277;52.724;6.516;2023-10-13T08:14:01;100405.13;;;16.20;100.00
78671;BME280;68277;52.724;6.516;2023-10-13T08:16:36;100419.75;;;16.30;100.00
78671;BME280;68277;52.724;6.516;2023-10-13T08:19:15;100415.19;;;16.32;100.00
78671;BME280;68277;52.724;6.516;2023-10-13T08:21:45;100395.25;;;16.22;100.00
78671;BME280;68277;52.724;6.516;2023-10-13T08:24:23;100380.31;;;16.18;100.00
78671;BME280;68277;52.724;6.516;2023-10-13T08:27:15;100402.84;;;16.30;100.00
78671;BME280;68277;52.724;6.516;2023-10-13T08:29:42;100384.50;;;16.24;100.00
78671;BME280;68277;52.724;6.516;2023-10-13T08:32:26;100402.19;;;16.42;100.00
78671;BME280;68277;52.724;6.516;2023-10-13T08:34:55;100399.22;;;16.48;100.00
78671;BME280;68277;52.724;6.516;2023-10-13T08:37:29;100347.00;;;16.25;100.00
78671;BME280;68277;52.724;6.516;2023-10-13T08:39:59;100359.16;;;16.48;100.00
78671;BME280;68277;52.724;6.516;2023-10-13T08:42:35;100371.69;;;16.63;100.00
78671;BME280;68277;52.724;6.516;2023-10-13T08:45:07;100380.69;;;16.78;100.00
78671;BME280;68277;52.724;6.516;2023-10-13T08:47:52;100355.44;;;16.83;100.00
78671;BME280;68277;52.724;6.516;2023-10-13T08:50:53;100347.00;;;16.91;100.00
78671;BME280;68277;52.724;6.516;2023-10-13T08:53:25;100356.50;;;17.12;100.00
78671;BME280;68277;52.724;6.516;2023-10-13T08:56:00;100349.47;;;17.25;100.00
78671;BME280;68277;52.724;6.516;2023-10-13T08:58:49;100344.13;;;17.25;100.00
78671;BME280;68277;52.724;6.516;2023-10-13T09:01:27;100353.34;;;17.35;100.00
78671;BME280;68277;52.724;6.516;2023-10-13T09:04:07;100345.31;;;17.35;100.00
78671;BME280;68277;52.724;6.516;2023-10-13T09:06:55;100347.75;;;17.40;100.00
78671;BME280;68277;52.724;6.516;2023-10-13T09:12:31;100327.00;;;17.43;100.00
78671;BME280;68277;52.724;6.516;2023-10-13T09:14:58;100342.63;;;17.51;100.00
78671;BME280;68277;52.724;6.516;2023-10-13T09:17:25;100352.91;;;17.58;100.00
78671;BME280;68277;52.724;6.516;2023-10-13T09:20:01;100325.28;;;17.58;100.00
78671;BME280;68277;52.724;6.516;2023-10-13T09:22:45;100338.41;;;17.76;100.00
78671;BME280;68277;52.724;6.516;2023-10-13T09:27:59;100306.84;;;17.67;100.00
78671;BME280;68277;52.724;6.516;2023-10-13T09:30:28;100287.47;;;17.64;100.00
78671;BME280;68277;52.724;6.516;2023-10-13T09:33:01;100303.59;;;17.62;100.00
78671;BME280;68277;52.724;6.516;2023-10-13T09:35:43;100268.84;;;17.47;100.00
78671;BME280;68277;52.724;6.516;2023-10-13T09:38:17;100291.72;;;17.52;100.00
78671;BME280;68277;52.724;6.516;2023-10-13T09:40:44;100289.38;;;17.46;100.00
78671;BME280;68277;52.724;6.516;2023-10-13T09:43:17;100298.69;;;17.55;100.00
78671;BME280;68277;52.724;6.516;2023-10-13T09:45:46;100288.50;;;17.46;100.00
78671;BME280;68277;52.724;6.516;2023-10-13T09:48:44;100307.59;;;17.55;100.00
78671;BME280;68277;52.724;6.516;2023-10-13T09:51:17;100297.84;;;17.54;100.00
78671;BME280;68277;52.724;6.516;2023-10-13T09:54:09;100287.22;;;17.53;100.00
78671;BME280;68277;52.724;6.516;2023-10-13T09:56:50;100291.53;;;17.55;100.00
78671;BME280;68277;52.724;6.516;2023-10-13T09:59:32;100274.34;;;17.59;100.00
78671;BME280;68277;52.724;6.516;2023-10-13T10:02:05;100258.47;;;17.56;100.00
78671;BME280;68277;52.724;6.516;2023-10-13T10:04:34;100284.22;;;17.73;100.00
78671;BME280;68277;52.724;6.516;2023-10-13T10:07:29;100272.97;;;17.82;100.00
78671;BME280;68277;52.724;6.516;2023-10-13T10:09:58;100258.31;;;17.73;100.00
78671;BME280;68277;52.724;6.516;2023-10-13T10:12:55;100273.25;;;17.92;100.00
78671;BME280;68277;52.724;6.516;2023-10-13T10:15:36;100254.53;;;17.92;100.00
78671;BME280;68277;52.724;6.516;2023-10-13T10:18:22;100260.75;;;17.92;100.00
78671;BME280;68277;52.724;6.516;2023-10-13T10:20:51;100260.53;;;17.95;100.00
78671;BME280;68277;52.724;6.516;2023-10-13T10:23:26;100230.03;;;17.98;100.00
78671;BME280;68277;52.724;6.516;2023-10-13T10:26:12;100269.34;;;18.11;100.00
78671;BME280;68277;52.724;6.516;2023-10-13T10:28:45;100254.72;;;18.17;100.00
78671;BME280;68277;52.724;6.516;2023-10-13T10:31:12;100241.03;;;18.21;100.00
78671;BME280;68277;52.724;6.516;2023-10-13T10:33:42;100240.34;;;18.32;100.00
78671;BME280;68277;52.724;6.516;2023-10-13T10:36:09;100253.53;;;18.35;100.00
78671;BME280;68277;52.724;6.516;2023-10-13T10:38:59;100236.69;;;18.33;100.00
78671;BME280;68277;52.724;6.516;2023-10-13T10:41:27;100226.84;;;18.33;100.00
78671;BME280;68277;52.724;6.516;2023-10-13T10:44:12;100216.25;;;18.32;100.00
78671;BME280;68277;52.724;6.516;2023-10-13T10:46:41;100212.50;;;18.34;100.00
78671;BME280;68277;52.724;6.516;2023-10-13T10:49:20;100207.03;;;18.36;100.00
78671;BME280;68277;52.724;6.516;2023-10-13T10:51:58;100181.78;;;18.26;100.00
78671;BME280;68277;52.724;6.516;2023-10-13T10:54:27;100166.50;;;18.14;100.00
78671;BME280;68277;52.724;6.516;2023-10-13T10:56:58;100174.47;;;18.15;100.00
78671;BME280;68277;52.724;6.516;2023-10-13T10:59:38;100176.56;;;18.24;100.00
78671;BME280;68277;52.724;6.516;2023-10-13T11:02:05;100172.72;;;18.28;100.00
78671;BME280;68277;52.724;6.516;2023-10-13T11:04:32;100151.00;;;18.19;100.00
78671;BME280;68277;52.724;6.516;2023-10-13T11:07:07;100161.25;;;18.26;100.00
78671;BME280;68277;52.724;6.516;2023-10-13T11:09:34;100180.16;;;18.37;100.00
78671;BME280;68277;52.724;6.516;2023-10-13T11:14:39;100168.03;;;18.32;100.00
78671;BME280;68277;52.724;6.516;2023-10-13T11:17:05;100148.03;;;18.23;100.00
78671;BME280;68277;52.724;6.516;2023-10-13T11:19:45;100159.38;;;18.41;100.00
78671;BME280;68277;52.724;6.516;2023-10-13T11:24:42;100154.78;;;18.43;100.00
78671;BME280;68277;52.724;6.516;2023-10-13T11:27:17;100133.19;;;18.46;100.00
78671;BME280;68277;52.724;6.516;2023-10-13T11:29:46;100139.31;;;18.48;100.00
78671;BME280;68277;52.724;6.516;2023-10-13T11:32:17;100130.75;;;18.56;100.00
78671;BME280;68277;52.724;6.516;2023-10-13T11:34:45;100126.09;;;18.72;100.00
78671;BME280;68277;52.724;6.516;2023-10-13T11:37:17;100136.47;;;19.03;100.00
78671;BME280;68277;52.724;6.516;2023-10-13T11:40:04;100125.53;;;19.19;100.00
78671;BME280;68277;52.724;6.516;2023-10-13T11:42:40;100116.19;;;19.11;100.00
78671;BME280;68277;52.724;6.516;2023-10-13T11:45:09;100091.63;;;19.05;100.00
78671;BME280;68277;52.724;6.516;2023-10-13T11:47:53;100083.34;;;19.08;100.00
78671;BME280;68277;52.724;6.516;2023-10-13T11:50:25;100125.13;;;19.12;100.00
78671;BME280;68277;52.724;6.516;2023-10-13T11:53:01;100090.53;;;18.95;100.00
78671;BME280;68277;52.724;6.516;2023-10-13T11:55:32;100108.34;;;18.96;100.00
78671;BME280;68277;52.724;6.516;2023-10-13T11:57:58;100102.75;;;18.86;100.00
78671;BME280;68277;52.724;6.516;2023-10-13T12:00:24;100107.69;;;18.92;100.00
78671;BME280;68277;52.724;6.516;2023-10-13T12:03:09;100087.50;;;18.74;100.00
78671;BME280;68277;52.724;6.516;2023-10-13T12:06:10;100091.06;;;18.87;100.00
78671;BME280;68277;52.724;6.516;2023-10-13T12:08:47;100051.03;;;18.72;100.00
78671;BME280;68277;52.724;6.516;2023-10-13T12:11:18;100078.19;;;18.92;100.00
78671;BME280;68277;52.724;6.516;2023-10-13T12:13:56;100049.09;;;18.74;100.00
78671;BME280;68277;52.724;6.516;2023-10-13T12:16:22;100071.78;;;18.95;100.00
78671;BME280;68277;52.724;6.516;2023-10-13T12:18:47;100049.03;;;18.88;100.00
78671;BME280;68277;52.724;6.516;2023-10-13T12:21:19;100069.72;;;18.98;100.00
78671;BME280;68277;52.724;6.516;2023-10-13T12:23:47;100031.44;;;18.84;100.00
78671;BME280;68277;52.724;6.516;2023-10-13T12:26:12;100053.41;;;18.89;100.00
78671;BME280;68277;52.724;6.516;2023-10-13T12:28:58;100046.44;;;18.99;100.00
78671;BME280;68277;52.724;6.516;2023-10-13T12:31:34;100036.69;;;18.85;100.00
78671;BME280;68277;52.724;6.516;2023-10-13T12:34:04;100049.38;;;18.96;100.00
78671;BME280;68277;52.724;6.516;2023-10-13T12:36:39;100026.31;;;18.93;100.00
78671;BME280;68277;52.724;6.516;2023-10-13T12:39:18;100023.06;;;19.01;100.00
78671;BME280;68277;52.724;6.516;2023-10-13T12:42:02;100053.41;;;19.01;100.00
78671;BME280;68277;52.724;6.516;2023-10-13T12:44:46;100041.75;;;19.02;100.00
78671;BME280;68277;52.724;6.516;2023-10-13T12:47:44;100063.97;;;19.17;100.00
78671;BME280;68277;52.724;6.516;2023-10-13T12:50:28;100070.38;;;19.27;100.00
78671;BME280;68277;52.724;6.516;2023-10-13T12:53:09;100049.44;;;19.20;98.35
78671;BME280;68277;52.724;6.516;2023-10-13T12:55:42;100048.81;;;19.16;100.00
78671;BME280;68277;52.724;6.516;2023-10-13T12:58:07;100041.97;;;19.12;93.37
78671;BME280;68277;52.724;6.516;2023-10-13T13:00:34;100067.94;;;19.37;98.41
78671;BME280;68277;52.724;6.516;2023-10-13T13:03:00;100030.03;;;19.29;98.40
78671;BME280;68277;52.724;6.516;2023-10-13T13:05:25;100045.19;;;19.42;97.17
78671;BME280;68277;52.724;6.516;2023-10-13T13:07:54;100019.44;;;19.40;96.27
78671;BME280;68277;52.724;6.516;2023-10-13T13:10:19;100046.44;;;19.62;94.65
78671;BME280;68277;52.724;6.516;2023-10-13T13:12:54;100024.13;;;19.49;96.03
78671;BME280;68277;52.724;6.516;2023-10-13T13:15:19;100025.41;;;19.56;96.44
78671;BME280;68277;52.724;6.516;2023-10-13T13:17:48;100035.81;;;19.60;95.13
78671;BME280;68277;52.724;6.516;2023-10-13T13:20:15;100045.66;;;19.72;94.33
78671;BME280;68277;52.724;6.516;2023-10-13T13:22:55;100049.75;;;19.65;94.49
78671;BME280;68277;52.724;6.516;2023-10-13T13:25:28;100032.38;;;19.58;96.38
78671;BME280;68277;52.724;6.516;2023-10-13T13:27:56;100038.31;;;19.51;96.89
78671;BME280;68277;52.724;6.516;2023-10-13T13:30:24;100076.94;;;19.61;96.92